Time;durP1;ratioP1;P1;durP2;ratioP2;P2;SDS_P1;SDS_P2;PMS_P1;PMS_P2;Temp;Humidity;BMP_temperature;BMP_pressure;BME280_temperature;BME280_humidity;BME280_pressure;Samples;Min_cycle;Max_cycle;Signal;HPM_P1;HPM_P2
2022/09/09 00:00:25;;;;;;;8.90;2.30;;;15.70;99.90;;;;;;5053451;28;20457;-74
2022/09/09 00:03:04;;;;;;;5.47;2.10;;;15.60;99.90;;;;;;5053623;28;20096;-74
2022/09/09 00:05:40;;;;;;;10.35;2.35;;;15.70;99.90;;;;;;5052345;28;20052;-75
2022/09/09 00:08:21;;;;;;;9.20;2.70;;;15.60;99.90;;;;;;5053739;28;20048;-75
2022/09/09 00:10:56;;;;;;;12.57;2.70;;;15.50;99.90;;;;;;5053471;28;20025;-74
2022/09/09 00:13:36;;;;;;;8.95;2.65;;;15.50;99.90;;;;;;5053557;28;20378;-74
2022/09/09 00:16:13;;;;;;;7.75;2.85;;;15.40;99.90;;;;;;5059848;28;20370;-74
2022/09/09 00:19:04;;;;;;;8.82;2.75;;;15.40;99.90;;;;;;5069115;28;20086;-74
2022/09/09 00:21:43;;;;;;;12.50;2.60;;;15.50;99.90;;;;;;5068727;28;20466;-75
2022/09/09 00:24:18;;;;;;;9.13;2.72;;;15.50;99.90;;;;;;5053130;28;20025;-74
2022/09/09 00:26:49;;;;;;;6.95;2.42;;;15.50;99.90;;;;;;5053348;28;20139;-74
2022/09/09 00:29:45;;;;;;;6.72;2.55;;;15.60;99.90;;;;;;5067313;28;20041;-75
2022/09/09 00:32:18;;;;;;;10.57;2.70;;;15.60;99.90;;;;;;5052251;28;20033;-74
2022/09/09 00:34:58;;;;;;;11.73;2.65;;;15.50;99.90;;;;;;5051768;28;20489;-74
2022/09/09 00:37:26;;;;;;;6.55;2.40;;;15.50;99.90;;;;;;5054792;28;20488;-74
2022/09/09 00:39:57;;;;;;;18.00;2.70;;;15.50;99.90;;;;;;5051870;28;20027;-76
2022/09/09 00:42:26;;;;;;;11.30;3.30;;;15.50;99.90;;;;;;5052134;28;20069;-75
2022/09/09 00:45:31;;;;;;;8.43;2.22;;;15.60;99.90;;;;;;5052471;28;20049;-75
2022/09/09 00:47:59;;;;;;;9.27;2.50;;;15.60;99.90;;;;;;5021400;28;20040;-75
2022/09/09 00:50:24;;;;;;;10.10;3.53;;;15.50;99.90;;;;;;5068322;28;20041;-80
2022/09/09 00:53:05;;;;;;;4.88;2.30;;;15.50;99.90;;;;;;5052931;28;20041;-74
2022/09/09 00:55:37;;;;;;;5.10;2.20;;;15.50;99.90;;;;;;5056141;28;20061;-75
2022/09/09 00:58:08;;;;;;;8.77;2.38;;;15.60;99.90;;;;;;5034453;28;20040;-75
2022/09/09 01:00:52;;;;;;;8.23;2.25;;;15.70;99.90;;;;;;5051451;28;20024;-74
2022/09/09 01:03:34;;;;;;;13.30;2.42;;;15.60;99.90;;;;;;5034706;28;20033;-75
2022/09/09 01:06:11;;;;;;;10.73;2.38;;;15.60;99.90;;;;;;5068052;28;20036;-77
2022/09/09 01:08:46;;;;;;;8.02;2.25;;;15.60;99.90;;;;;;5067681;28;20032;-75
2022/09/09 01:11:43;;;;;;;8.73;2.15;;;15.50;99.90;;;;;;5051524;28;20428;-75
2022/09/09 01:14:35;;;;;;;13.43;2.50;;;15.40;99.90;;;;;;5051171;28;20044;-74
2022/09/09 01:17:24;;;;;;;8.57;2.25;;;15.30;99.90;;;;;;5067807;28;20124;-75
2022/09/09 01:20:19;;;;;;;6.55;2.50;;;15.30;99.90;;;;;;5051251;28;20115;-74
2022/09/09 01:22:58;;;;;;;8.13;2.97;;;15.40;99.90;;;;;;5068076;28;20029;-74
2022/09/09 01:25:49;;;;;;;7.22;1.95;;;15.30;99.90;;;;;;5067671;28;20096;-74
2022/09/09 01:28:28;;;;;;;7.40;2.83;;;15.20;99.90;;;;;;5067566;28;20095;-75
2022/09/09 01:31:02;;;;;;;10.65;2.50;;;15.20;99.90;;;;;;5051104;28;20028;-75
2022/09/09 01:33:34;;;;;;;5.63;2.03;;;15.20;99.90;;;;;;5067737;28;20501;-76
2022/09/09 01:36:15;;;;;;;10.13;2.38;;;15.10;99.90;;;;;;5052191;28;20041;-75
2022/09/09 01:38:48;;;;;;;11.82;2.63;;;15.10;99.90;;;;;;5051148;28;20397;-76
2022/09/09 01:41:15;;;;;;;9.75;2.17;;;15.10;99.90;;;;;;5067547;28;20116;-76
2022/09/09 01:43:48;;;;;;;12.35;2.40;;;15.20;99.90;;;;;;5050868;28;20025;-75
2022/09/09 01:46:14;;;;;;;7.68;2.13;;;15.20;99.90;;;;;;5052115;28;20024;-74
2022/09/09 01:48:43;;;;;;;13.32;2.90;;;15.30;99.90;;;;;;5051191;28;20033;-74
2022/09/09 01:51:10;;;;;;;7.18;2.58;;;15.10;99.90;;;;;;5051952;28;20021;-75
2022/09/09 01:53:37;;;;;;;10.52;3.00;;;15.20;99.90;;;;;;5051056;28;20033;-75
2022/09/09 01:56:27;;;;;;;9.07;2.75;;;15.20;99.90;;;;;;5050293;28;20028;-75
2022/09/09 01:59:19;;;;;;;7.22;2.85;;;15.10;99.90;;;;;;5067797;28;20401;-75
2022/09/09 02:02:06;;;;;;;9.73;3.05;;;15.10;99.90;;;;;;5053296;28;20484;-76
2022/09/09 02:04:39;;;;;;;9.75;3.22;;;15.20;99.90;;;;;;5050763;28;20056;-75
2022/09/09 02:07:32;;;;;;;9.05;2.80;;;15.20;99.90;;;;;;5067548;28;20472;-74
2022/09/09 02:10:25;;;;;;;10.07;3.25;;;15.10;99.90;;;;;;5067554;28;20032;-74
2022/09/09 02:13:19;;;;;;;10.57;3.33;;;15.20;99.90;;;;;;5050384;28;20032;-75
2022/09/09 02:16:27;;;;;;;12.07;3.70;;;15.20;99.90;;;;;;5050841;28;20029;-77
2022/09/09 02:19:26;;;;;;;9.75;3.72;;;15.20;99.90;;;;;;5045868;28;20099;-74
2022/09/09 02:22:04;;;;;;;9.55;3.85;;;15.20;99.90;;;;;;5070907;28;20025;-74
2022/09/09 02:24:34;;;;;;;10.10;3.15;;;15.10;99.90;;;;;;5055778;28;20385;-74
2022/09/09 02:27:18;;;;;;;7.80;3.20;;;15.20;99.90;;;;;;5053626;28;20445;-76
2022/09/09 02:29:47;;;;;;;14.75;5.25;;;15.10;99.90;;;;;;5055650;28;20547;-74
2022/09/09 02:32:18;;;;;;;13.10;4.25;;;15.10;99.90;;;;;;5055116;28;20017;-75
2022/09/09 02:34:47;;;;;;;8.80;3.90;;;15.10;99.90;;;;;;5054143;28;20032;-76
2022/09/09 02:37:17;;;;;;;16.83;4.00;;;15.20;99.90;;;;;;5037761;28;20064;-74
2022/09/09 02:39:47;;;;;;;16.17;4.70;;;15.20;99.90;;;;;;5057467;28;20386;-74
2022/09/09 02:42:16;;;;;;;17.80;3.75;;;15.20;99.90;;;;;;5070600;28;20124;-74
2022/09/09 02:44:44;;;;;;;10.90;3.67;;;15.20;99.90;;;;;;5037457;28;20473;-74
2022/09/09 02:47:30;;;;;;;17.00;3.60;;;15.20;99.90;;;;;;5055138;28;20126;-75
2022/09/09 02:50:11;;;;;;;8.27;3.60;;;15.30;99.90;;;;;;5040991;28;20021;-74
2022/09/09 02:52:59;;;;;;;15.70;3.47;;;15.20;99.90;;;;;;5070052;28;20033;-75
2022/09/09 02:55:34;;;;;;;17.13;3.75;;;15.20;99.90;;;;;;5070147;28;20029;-75
2022/09/09 02:58:05;;;;;;;17.15;4.53;;;15.30;99.90;;;;;;5053707;28;20120;-74
2022/09/09 03:00:35;;;;;;;11.20;3.75;;;15.30;99.90;;;;;;5070534;28;20025;-75
2022/09/09 03:03:03;;;;;;;8.40;3.22;;;15.40;99.90;;;;;;5069951;28;20123;-74
2022/09/09 03:05:30;;;;;;;12.90;3.60;;;15.30;99.90;;;;;;5036962;28;20025;-75
2022/09/09 03:07:57;;;;;;;10.25;3.42;;;15.40;99.90;;;;;;5053461;28;20063;-75
2022/09/09 03:10:23;;;;;;;14.75;3.45;;;15.30;99.90;;;;;;5055000;28;20064;-75
2022/09/09 03:12:48;;;;;;;13.13;3.33;;;15.30;99.90;;;;;;5053347;28;20021;-74
2022/09/09 03:15:17;;;;;;;13.43;3.35;;;15.40;99.90;;;;;;5053306;28;20029;-74
2022/09/09 03:17:43;;;;;;;13.27;3.50;;;15.30;99.90;;;;;;5070090;28;20052;-74
2022/09/09 03:20:09;;;;;;;20.15;4.20;;;15.40;99.90;;;;;;5053412;28;20385;-76
2022/09/09 03:22:37;;;;;;;15.50;3.70;;;15.40;99.90;;;;;;5053204;28;20036;-75
2022/09/09 03:25:03;;;;;;;17.02;3.60;;;15.40;99.90;;;;;;5052958;28;20123;-74
2022/09/09 03:27:30;;;;;;;16.67;3.40;;;15.40;99.90;;;;;;5069863;28;20061;-75
2022/09/09 03:29:57;;;;;;;17.27;3.25;;;15.50;99.90;;;;;;5036647;28;20021;-75
2022/09/09 03:32:25;;;;;;;10.80;2.58;;;15.40;99.90;;;;;;5051862;28;20017;-74
2022/09/09 03:34:52;;;;;;;8.35;2.63;;;15.40;99.90;;;;;;5053095;28;20039;-75
2022/09/09 03:37:19;;;;;;;10.45;2.47;;;15.50;99.90;;;;;;5052836;28;20480;-74
2022/09/09 03:39:45;;;;;;;21.60;3.38;;;15.50;99.90;;;;;;5052559;28;20035;-74
2022/09/09 03:42:19;;;;;;;9.68;2.92;;;15.50;99.90;;;;;;5052882;28;20025;-74
2022/09/09 03:44:49;;;;;;;19.75;2.80;;;15.50;99.90;;;;;;5055276;28;20021;-74
2022/09/09 03:47:22;;;;;;;12.00;3.03;;;15.50;99.90;;;;;;5052995;28;20044;-74
2022/09/09 03:49:50;;;;;;;10.00;2.53;;;15.50;99.90;;;;;;5069250;28;20044;-74
2022/09/09 03:52:16;;;;;;;16.52;2.70;;;15.40;99.90;;;;;;5052395;28;20420;-74
2022/09/09 03:54:42;;;;;;;17.90;3.55;;;15.40;99.90;;;;;;5053690;28;20033;-74
2022/09/09 03:57:10;;;;;;;16.73;3.00;;;15.40;99.90;;;;;;5052407;28;20031;-74
2022/09/09 03:59:36;;;;;;;13.45;2.38;;;15.40;99.90;;;;;;5052274;28;20116;-74
2022/09/09 04:02:03;;;;;;;18.80;2.83;;;15.40;99.90;;;;;;5052313;28;20103;-74
2022/09/09 04:04:28;;;;;;;11.80;2.63;;;15.30;99.90;;;;;;5035579;28;20032;-74
2022/09/09 04:06:55;;;;;;;18.70;2.65;;;15.40;99.90;;;;;;5035713;28;20511;-75
2022/09/09 04:09:20;;;;;;;18.80;2.75;;;15.50;99.90;;;;;;5052336;28;20108;-75
2022/09/09 04:11:49;;;;;;;10.68;2.72;;;15.40;99.90;;;;;;5052062;28;20115;-75
2022/09/09 04:14:15;;;;;;;16.20;2.80;;;15.30;99.90;;;;;;5035473;28;20028;-74
2022/09/09 04:16:42;;;;;;;14.57;3.00;;;15.30;99.90;;;;;;5068830;28;20096;-74
2022/09/09 04:19:08;;;;;;;16.63;2.53;;;15.30;99.90;;;;;;5052158;28;20397;-75
2022/09/09 04:21:35;;;;;;;13.48;3.08;;;15.30;99.90;;;;;;5035336;28;20296;-75
2022/09/09 04:24:01;;;;;;;16.40;2.70;;;15.30;99.90;;;;;;5052069;28;20017;-74
2022/09/09 04:26:27;;;;;;;13.27;3.85;;;15.30;99.90;;;;;;5051850;28;20074;-75
2022/09/09 04:28:53;;;;;;;10.57;2.90;;;15.30;99.90;;;;;;5051996;28;20029;-75
2022/09/09 04:31:23;;;;;;;17.83;3.28;;;15.30;99.90;;;;;;5051839;28;20052;-75
2022/09/09 04:33:50;;;;;;;16.67;2.70;;;15.30;99.90;;;;;;5051952;28;20120;-75
2022/09/09 04:36:18;;;;;;;18.65;3.10;;;15.30;99.90;;;;;;5034572;28;20168;-75
2022/09/09 04:38:44;;;;;;;17.90;3.30;;;15.30;99.90;;;;;;5068651;28;20029;-78
2022/09/09 04:41:11;;;;;;;16.15;2.60;;;15.30;99.90;;;;;;5053140;28;20032;-77
2022/09/09 04:43:39;;;;;;;18.58;3.03;;;15.20;99.90;;;;;;5051547;28;20029;-76
2022/09/09 04:46:07;;;;;;;19.60;2.97;;;15.40;99.90;;;;;;5068174;28;20481;-74
2022/09/09 04:48:33;;;;;;;14.13;2.75;;;15.30;99.90;;;;;;5058238;28;20121;-76
2022/09/09 04:51:04;;;;;;;15.00;3.15;;;15.30;99.90;;;;;;5056038;28;20112;-76
2022/09/09 04:53:31;;;;;;;13.45;2.85;;;15.30;99.90;;;;;;5068197;28;20060;-76
2022/09/09 04:56:11;;;;;;;17.42;2.95;;;15.40;99.90;;;;;;5051150;28;20366;-75
2022/09/09 04:58:42;;;;;;;16.80;3.00;;;15.40;99.90;;;;;;5056852;28;20568;-75
2022/09/09 05:01:14;;;;;;;16.60;2.70;;;15.30;99.90;;;;;;5051335;28;20068;-78
2022/09/09 05:03:45;;;;;;;19.77;2.55;;;15.20;99.90;;;;;;5051934;28;20041;-78
2022/09/09 05:06:18;;;;;;;15.88;2.33;;;15.30;99.90;;;;;;5050713;28;20029;-76
2022/09/09 05:08:45;;;;;;;13.10;3.08;;;15.30;99.90;;;;;;5067538;28;20056;-75
2022/09/09 05:11:24;;;;;;;17.10;3.35;;;15.40;99.90;;;;;;5050962;28;20056;-74
2022/09/09 05:13:52;;;;;;;15.00;2.83;;;15.30;99.90;;;;;;5055077;28;20497;-74
2022/09/09 05:16:20;;;;;;;14.55;3.33;;;15.30;99.90;;;;;;5051391;28;20469;-74
2022/09/09 05:18:46;;;;;;;18.88;3.00;;;15.30;99.90;;;;;;5067935;28;20385;-74
2022/09/09 05:21:14;;;;;;;15.25;3.53;;;15.30;99.90;;;;;;5067805;28;20029;-74
2022/09/09 05:23:40;;;;;;;23.77;3.10;;;15.40;99.90;;;;;;5051016;28;20055;-74
2022/09/09 05:26:11;;;;;;;19.35;3.33;;;15.40;99.90;;;;;;5046535;28;20029;-76
2022/09/09 05:28:37;;;;;;;14.55;2.92;;;15.50;99.90;;;;;;5054147;28;20147;-75
2022/09/09 05:31:07;;;;;;;17.40;2.97;;;15.50;99.90;;;;;;5050267;28;20028;-74
2022/09/09 05:33:37;;;;;;;17.35;3.17;;;15.50;99.90;;;;;;5064702;28;20030;-74
2022/09/09 05:36:07;;;;;;;13.20;2.63;;;15.60;99.90;;;;;;5049765;28;20492;-76
2022/09/09 05:38:34;;;;;;;20.08;3.42;;;15.60;99.90;;;;;;5049255;28;20392;-76
2022/09/09 05:41:02;;;;;;;21.73;3.22;;;15.50;99.90;;;;;;5051360;28;20033;-74
2022/09/09 05:43:29;;;;;;;15.23;2.65;;;15.60;99.90;;;;;;5067052;28;20060;-74
2022/09/09 05:46:07;;;;;;;22.88;3.15;;;15.60;99.90;;;;;;5031591;28;20029;-74
2022/09/09 05:48:39;;;;;;;21.05;3.67;;;15.60;99.90;;;;;;5047515;28;20052;-77
2022/09/09 05:51:08;;;;;;;17.63;3.13;;;15.60;99.90;;;;;;5032036;28;20482;-75
2022/09/09 05:53:34;;;;;;;22.13;4.70;;;15.70;99.90;;;;;;5050299;28;20029;-75
2022/09/09 05:56:03;;;;;;;12.63;2.80;;;15.60;99.90;;;;;;5069469;28;20040;-75
2022/09/09 05:58:31;;;;;;;23.38;4.07;;;15.70;99.90;;;;;;5053803;28;20029;-75
2022/09/09 06:01:11;;;;;;;18.67;3.15;;;15.90;99.90;;;;;;5053763;28;20474;-74
2022/09/09 06:03:39;;;;;;;12.18;3.10;;;15.80;99.90;;;;;;5086945;28;20021;-75
2022/09/09 06:06:08;;;;;;;18.70;3.72;;;15.70;99.90;;;;;;5053622;28;20025;-75
2022/09/09 06:08:39;;;;;;;13.68;2.58;;;15.90;99.90;;;;;;5066719;28;20115;-75
2022/09/09 06:11:08;;;;;;;14.07;3.70;;;15.90;99.90;;;;;;5068961;28;20397;-75
2022/09/09 06:13:37;;;;;;;15.50;3.35;;;15.90;99.90;;;;;;5054622;28;20316;-74
2022/09/09 06:16:04;;;;;;;16.27;3.22;;;15.90;99.90;;;;;;5053491;28;20105;-77
2022/09/09 06:18:30;;;;;;;15.63;2.95;;;15.90;99.90;;;;;;5053184;28;20469;-80
2022/09/09 06:21:03;;;;;;;17.17;3.10;;;15.90;99.90;;;;;;5054560;28;20031;-74
2022/09/09 06:23:30;;;;;;;18.70;3.47;;;15.80;99.90;;;;;;5036064;28;20028;-75
2022/09/09 06:26:17;;;;;;;18.40;3.40;;;16.00;99.90;;;;;;5054452;28;20024;-74
2022/09/09 06:28:47;;;;;;;11.98;2.33;;;16.00;99.90;;;;;;5053180;28;20440;-74
2022/09/09 06:31:21;;;;;;;16.85;3.80;;;15.90;99.90;;;;;;5053197;28;20032;-74
2022/09/09 06:33:47;;;;;;;16.75;2.92;;;15.90;99.90;;;;;;5068684;28;20457;-74
2022/09/09 06:36:17;;;;;;;15.68;2.95;;;15.90;99.90;;;;;;5068643;28;20025;-74
2022/09/09 06:38:44;;;;;;;16.63;2.90;;;16.00;99.90;;;;;;5069554;28;20082;-75
2022/09/09 06:41:14;;;;;;;19.77;2.88;;;16.00;99.90;;;;;;5069992;28;20056;-74
2022/09/09 06:43:40;;;;;;;18.02;4.03;;;16.10;99.90;;;;;;5053579;28;20475;-74
2022/09/09 06:46:13;;;;;;;18.40;2.65;;;16.20;99.90;;;;;;5052806;28;20058;-74
2022/09/09 06:48:44;;;;;;;17.58;3.40;;;16.20;99.90;;;;;;5053743;28;20021;-74
2022/09/09 06:51:17;;;;;;;8.82;2.63;;;16.40;99.90;;;;;;5053795;28;20028;-74
2022/09/09 06:53:45;;;;;;;13.15;2.63;;;16.30;99.90;;;;;;5053530;28;20033;-74
2022/09/09 06:56:28;;;;;;;18.75;3.13;;;16.30;99.90;;;;;;5053575;28;20041;-74
2022/09/09 06:58:58;;;;;;;12.48;3.17;;;16.30;99.90;;;;;;5053716;28;20075;-76
2022/09/09 07:01:30;;;;;;;15.70;2.65;;;16.30;99.90;;;;;;5069966;28;20056;-74
2022/09/09 07:03:59;;;;;;;18.15;2.78;;;16.30;99.90;;;;;;5053509;28;20025;-74
2022/09/09 07:06:28;;;;;;;13.15;2.63;;;16.30;99.90;;;;;;5053133;28;20061;-75
2022/09/09 07:08:58;;;;;;;15.60;2.35;;;16.50;99.90;;;;;;5070089;28;20021;-74
2022/09/09 07:11:29;;;;;;;11.07;2.40;;;16.60;99.90;;;;;;5070101;28;20416;-74
2022/09/09 07:13:57;;;;;;;18.67;2.60;;;16.60;99.90;;;;;;5053199;28;20033;-73
2022/09/09 07:16:24;;;;;;;19.88;3.95;;;16.50;99.90;;;;;;5052840;28;20029;-74
2022/09/09 07:18:51;;;;;;;14.25;2.85;;;16.40;99.90;;;;;;5054639;28;20083;-74
2022/09/09 07:21:18;;;;;;;15.68;2.83;;;16.20;99.90;;;;;;5053322;28;20025;-74
2022/09/09 07:23:44;;;;;;;18.35;2.60;;;16.10;99.90;;;;;;5053031;28;20059;-73
2022/09/09 07:26:15;;;;;;;19.40;2.92;;;16.20;99.90;;;;;;5052959;28;20504;-75
2022/09/09 07:28:43;;;;;;;13.75;2.88;;;16.20;99.90;;;;;;5052868;28;20481;-74
2022/09/09 07:31:27;;;;;;;13.82;2.97;;;16.40;99.90;;;;;;5052957;28;20082;-74
2022/09/09 07:33:54;;;;;;;10.55;2.70;;;16.30;99.90;;;;;;5052692;28;20028;-74
2022/09/09 07:36:39;;;;;;;22.38;2.72;;;16.40;99.90;;;;;;5052876;28;20100;-74
2022/09/09 07:39:10;;;;;;;14.50;2.65;;;16.40;99.90;;;;;;5052775;28;20080;-77
2022/09/09 07:41:40;;;;;;;21.50;2.85;;;16.60;99.90;;;;;;5052820;28;20028;-78
2022/09/09 07:44:10;;;;;;;10.73;3.10;;;16.80;99.90;;;;;;5036083;28;20029;-79
2022/09/09 07:46:39;;;;;;;11.60;2.63;;;16.70;99.90;;;;;;5069250;28;20036;-81
2022/09/09 07:49:08;;;;;;;14.02;2.88;;;16.80;99.90;;;;;;5069633;28;20163;-80
2022/09/09 07:51:37;;;;;;;16.05;2.85;;;16.90;99.90;;;;;;5052672;28;20119;-75
2022/09/09 07:54:06;;;;;;;12.85;2.78;;;16.90;99.90;;;;;;5066792;28;20102;-78
2022/09/09 07:56:34;;;;;;;11.05;2.85;;;17.00;99.90;;;;;;5035875;28;20470;-79
2022/09/09 07:59:01;;;;;;;14.07;2.92;;;17.10;99.90;;;;;;5047493;28;20040;-76
2022/09/09 08:01:31;;;;;;;14.15;3.42;;;17.10;99.90;;;;;;5044421;28;20017;-75
2022/09/09 08:04:03;;;;;;;11.38;2.50;;;17.00;99.90;;;;;;5067507;28;20520;-81
2022/09/09 08:06:33;;;;;;;14.27;2.92;;;16.90;99.90;;;;;;5064114;28;20017;-76
2022/09/09 08:09:00;;;;;;;11.57;2.90;;;16.70;99.90;;;;;;5049945;28;20402;-75
2022/09/09 08:11:28;;;;;;;11.02;3.00;;;16.80;99.90;;;;;;5051186;28;20389;-77
2022/09/09 08:13:55;;;;;;;10.75;2.42;;;16.80;99.90;;;;;;5066570;28;20029;-75
2022/09/09 08:16:27;;;;;;;15.32;2.35;;;16.80;99.90;;;;;;5067103;28;20170;-74
2022/09/09 08:18:56;;;;;;;8.63;2.50;;;16.90;99.90;;;;;;5047466;28;20017;-75
2022/09/09 08:21:26;;;;;;;14.45;3.10;;;17.00;99.90;;;;;;5049101;28;20024;-79
2022/09/09 08:23:54;;;;;;;15.57;3.20;;;17.10;99.90;;;;;;5051772;28;20025;-76
2022/09/09 08:26:27;;;;;;;12.77;2.42;;;17.10;99.90;;;;;;5049636;28;20016;-79
2022/09/09 08:28:56;;;;;;;14.73;2.63;;;17.30;99.90;;;;;;5052638;28;20123;-79
2022/09/09 08:31:28;;;;;;;12.32;2.13;;;17.40;99.90;;;;;;5051047;28;20027;-75
2022/09/09 08:33:55;;;;;;;15.30;2.58;;;17.30;99.90;;;;;;5050592;28;20467;-79
2022/09/09 08:36:25;;;;;;;18.02;2.63;;;17.30;99.90;;;;;;5050643;28;20021;-79
2022/09/09 08:38:56;;;;;;;9.93;2.05;;;17.40;99.90;;;;;;5050827;28;20125;-80
2022/09/09 08:41:50;;;;;;;10.40;2.47;;;17.30;99.90;;;;;;5059537;28;20021;-74
2022/09/09 08:44:38;;;;;;;9.25;2.35;;;17.30;99.90;;;;;;5063060;28;20438;-83
2022/09/09 08:47:15;;;;;;;17.10;2.88;;;17.20;99.90;;;;;;5050929;28;20481;-82
2022/09/09 08:50:14;;;;;;;14.77;2.75;;;17.10;99.90;;;;;;5067489;28;20025;-78
2022/09/09 08:52:47;;;;;;;15.73;3.05;;;17.00;99.90;;;;;;5067338;28;20173;-83
2022/09/09 08:55:28;;;;;;;16.95;3.20;;;17.00;99.90;;;;;;5067096;28;20124;-74
2022/09/09 08:58:00;;;;;;;9.80;2.60;;;17.00;99.90;;;;;;5067082;28;20037;-83
2022/09/09 09:00:54;;;;;;;10.45;2.30;;;17.00;99.90;;;;;;5066649;28;20057;-76
2022/09/09 09:03:52;;;;;;;11.88;2.47;;;17.00;99.90;;;;;;5065978;28;20124;-83
2022/09/09 09:06:30;;;;;;;11.02;2.72;;;17.00;99.90;;;;;;5051121;28;20094;-75
2022/09/09 09:09:06;;;;;;;10.93;2.22;;;17.00;99.90;;;;;;5067548;28;20025;-77
2022/09/09 09:11:48;;;;;;;8.27;2.15;;;17.00;99.90;;;;;;5067130;28;20025;-78
2022/09/09 09:14:23;;;;;;;10.73;2.30;;;17.00;99.90;;;;;;5051466;28;20033;-76
2022/09/09 09:17:03;;;;;;;14.07;2.72;;;16.90;99.90;;;;;;5050970;28;20021;-75
2022/09/09 09:19:32;;;;;;;11.90;2.15;;;16.90;99.90;;;;;;5068053;28;20458;-77
2022/09/09 09:22:16;;;;;;;13.02;2.70;;;16.90;99.90;;;;;;5048006;28;20051;-75
2022/09/09 09:25:10;;;;;;;14.15;2.33;;;17.00;99.90;;;;;;5049662;28;20030;-74
2022/09/09 09:27:43;;;;;;;10.73;2.25;;;16.90;99.90;;;;;;5049319;28;20461;-74
2022/09/09 09:30:23;;;;;;;11.85;2.38;;;16.80;99.90;;;;;;5079527;28;20492;-74
2022/09/09 09:33:17;;;;;;;11.93;3.08;;;16.80;99.90;;;;;;5057139;28;20025;-74
2022/09/09 09:35:43;;;;;;;12.63;2.90;;;16.70;99.90;;;;;;5069283;28;20028;-74
2022/09/09 09:38:29;;;;;;;16.35;2.70;;;16.70;99.90;;;;;;5077842;28;20033;-74
2022/09/09 09:41:00;;;;;;;11.68;2.28;;;16.70;99.90;;;;;;5053920;28;20060;-74
2022/09/09 09:43:29;;;;;;;14.00;2.92;;;16.90;99.90;;;;;;5071109;28;20457;-74
2022/09/09 09:45:58;;;;;;;13.80;2.72;;;16.80;99.90;;;;;;5073124;28;20021;-75
2022/09/09 09:48:25;;;;;;;18.10;3.28;;;16.80;99.90;;;;;;5054221;28;20021;-74
2022/09/09 09:50:53;;;;;;;9.18;2.17;;;16.80;99.90;;;;;;5067970;28;20032;-75
2022/09/09 09:53:24;;;;;;;15.50;2.33;;;16.70;99.90;;;;;;5041543;28;20473;-75
2022/09/09 09:55:58;;;;;;;10.77;2.33;;;16.70;99.90;;;;;;5053657;28;20086;-74
2022/09/09 09:58:44;;;;;;;9.15;2.25;;;16.60;99.90;;;;;;5083190;28;20025;-73
2022/09/09 10:01:33;;;;;;;15.00;3.08;;;16.40;99.90;;;;;;5065863;28;20064;-76
2022/09/09 10:04:14;;;;;;;7.78;2.38;;;16.40;99.90;;;;;;5045812;28;20033;-75
2022/09/09 10:06:40;;;;;;;15.38;2.70;;;16.40;99.90;;;;;;5053611;28;20021;-74
2022/09/09 10:09:33;;;;;;;16.27;2.97;;;16.60;99.90;;;;;;5054872;28;20384;-74
2022/09/09 10:12:13;;;;;;;9.10;2.58;;;16.60;99.90;;;;;;5054839;28;20021;-75
2022/09/09 10:15:08;;;;;;;11.63;2.30;;;16.90;99.90;;;;;;5053723;28;20107;-74
2022/09/09 10:17:56;;;;;;;9.40;2.40;;;17.10;99.90;;;;;;5040095;28;20028;-74
2022/09/09 10:20:54;;;;;;;9.93;2.85;;;17.20;99.90;;;;;;5048305;28;20044;-74
2022/09/09 10:23:51;;;;;;;10.95;1.90;;;17.50;99.90;;;;;;5046697;28;20040;-74
2022/09/09 10:26:45;;;;;;;8.15;2.30;;;17.40;99.90;;;;;;5053587;28;20025;-73
2022/09/09 10:29:43;;;;;;;10.10;1.77;;;17.40;99.90;;;;;;5051865;28;20044;-74
2022/09/09 10:32:42;;;;;;;9.75;2.60;;;17.40;99.90;;;;;;5055130;28;20481;-73
2022/09/09 10:35:29;;;;;;;10.55;2.50;;;17.40;99.90;;;;;;5053717;28;20044;-73
2022/09/09 10:38:13;;;;;;;14.65;2.58;;;17.20;99.90;;;;;;5054810;28;20043;-73
2022/09/09 10:40:51;;;;;;;9.15;2.63;;;17.40;99.90;;;;;;5054602;28;20068;-74
2022/09/09 10:43:47;;;;;;;11.90;1.95;;;17.40;99.90;;;;;;5042850;28;20424;-73
2022/09/09 10:46:29;;;;;;;10.68;2.55;;;17.40;99.90;;;;;;5053938;28;20405;-74
2022/09/09 10:49:07;;;;;;;12.90;2.83;;;17.50;99.90;;;;;;5055210;28;20037;-74
2022/09/09 10:51:56;;;;;;;13.50;1.80;;;17.60;99.90;;;;;;5053741;28;20024;-73
2022/09/09 10:54:36;;;;;;;12.35;2.50;;;17.60;99.90;;;;;;5069669;28;20111;-73
2022/09/09 10:57:13;;;;;;;10.63;2.50;;;17.70;99.90;;;;;;5053871;28;20040;-73
2022/09/09 10:59:45;;;;;;;10.05;2.13;;;18.00;99.90;;;;;;5054733;28;20029;-73
2022/09/09 11:02:22;;;;;;;11.27;2.50;;;18.00;99.90;;;;;;5053452;28;20037;-75
2022/09/09 11:04:50;;;;;;;6.97;1.88;;;18.30;99.90;;;;;;5041172;28;20496;-73
2022/09/09 11:07:29;;;;;;;5.88;1.60;;;18.40;99.90;;;;;;5043048;28;20385;-73
2022/09/09 11:10:03;;;;;;;9.82;2.00;;;18.30;99.90;;;;;;5053900;28;20615;-76
2022/09/09 11:12:31;;;;;;;7.05;1.83;;;18.20;99.90;;;;;;5043942;28;20059;-80
2022/09/09 11:15:36;;;;;;;8.63;1.90;;;18.40;99.90;;;;;;5053408;28;20063;-72
2022/09/09 11:18:06;;;;;;;6.72;1.73;;;18.60;99.90;;;;;;5022839;28;20432;-73
2022/09/09 11:20:32;;;;;;;10.00;2.13;;;18.70;99.90;;;;;;5083437;28;20037;-74
2022/09/09 11:23:20;;;;;;;9.32;2.60;;;18.50;99.90;;;;;;5053381;28;20025;-74
2022/09/09 11:25:56;;;;;;;6.47;1.83;;;18.60;99.90;;;;;;5051760;28;20025;-74
2022/09/09 11:28:57;;;;;;;4.25;1.40;;;18.90;99.90;;;;;;5053230;28;20493;-75
2022/09/09 11:31:44;;;;;;;7.20;1.90;;;18.80;99.90;;;;;;5060709;28;20036;-74
2022/09/09 11:34:30;;;;;;;10.70;1.85;;;18.90;99.90;;;;;;5068375;28;20551;-74
2022/09/09 11:37:29;;;;;;;5.90;1.40;;;18.80;99.90;;;;;;5052016;28;20045;-73
2022/09/09 11:40:14;;;;;;;7.68;2.00;;;18.70;99.90;;;;;;5050656;28;20036;-74
2022/09/09 11:42:41;;;;;;;6.80;1.60;;;18.80;99.90;;;;;;5053728;28;20025;-73
2022/09/09 11:45:29;;;;;;;4.00;1.20;;;18.80;99.90;;;;;;5037114;28;20029;-76
2022/09/09 11:47:59;;;;;;;6.68;1.88;;;18.80;99.90;;;;;;5051114;28;20025;-74
2022/09/09 11:50:25;;;;;;;5.37;2.07;;;19.10;99.90;;;;;;5053791;28;20060;-74
2022/09/09 11:53:03;;;;;;;4.53;1.40;;;19.40;99.90;;;;;;5052513;28;20064;-74
2022/09/09 11:55:36;;;;;;;6.82;1.58;;;19.90;99.90;;;;;;5053465;28;20120;-76
2022/09/09 11:58:14;;;;;;;11.68;1.42;;;20.30;99.90;;;;;;5052692;28;20036;-74
2022/09/09 12:00:48;;;;;;;3.13;1.15;;;20.30;99.90;;;;;;5053352;28;20082;-75
2022/09/09 12:03:36;;;;;;;5.25;1.90;;;20.20;99.90;;;;;;5053402;28;20029;-75
2022/09/09 12:06:39;;;;;;;5.30;0.98;;;19.80;99.90;;;;;;5053005;28;20059;-74
2022/09/09 12:09:31;;;;;;;5.38;1.27;;;19.80;99.90;;;;;;5036632;28;20136;-73
2022/09/09 12:12:26;;;;;;;2.60;1.10;;;19.40;99.90;;;;;;5053650;28;20033;-74
2022/09/09 12:15:20;;;;;;;6.07;1.60;;;19.50;99.90;;;;;;5035715;28;20041;-74
2022/09/09 12:17:58;;;;;;;6.40;1.02;;;19.40;99.90;;;;;;5053403;28;20033;-75
2022/09/09 12:20:33;;;;;;;6.40;1.90;;;19.50;99.90;;;;;;5053197;28;20403;-74
2022/09/09 12:23:20;;;;;;;4.68;1.10;;;20.00;99.90;;;;;;5053247;28;20096;-74
2022/09/09 12:25:58;;;;;;;6.38;1.20;;;19.80;99.90;;;;;;5052932;28;20103;-73
2022/09/09 12:28:52;;;;;;;6.15;1.35;;;19.60;99.90;;;;;;5048248;28;20055;-74
2022/09/09 12:31:22;;;;;;;3.10;1.15;;;19.30;99.90;;;;;;5053142;28;20028;-76
2022/09/09 12:33:48;;;;;;;2.47;0.88;;;19.60;99.90;;;;;;5053001;28;20036;-77
2022/09/09 12:36:21;;;;;;;5.35;1.13;;;19.40;99.90;;;;;;5052648;28;20029;-80
2022/09/09 12:38:47;;;;;;;6.03;1.73;;;19.20;99.90;;;;;;5052991;28;20036;-81
2022/09/09 12:41:22;;;;;;;5.88;1.63;;;19.30;99.90;;;;;;5051860;28;20021;-85
2022/09/09 12:43:50;;;;;;;5.05;1.20;;;19.50;99.90;;;;;;5051704;28;20396;-83
2022/09/09 12:46:40;;;;;;;3.00;1.15;;;19.70;99.90;;;;;;5052943;28;20048;-85
2022/09/09 12:49:24;;;;;;;5.68;1.05;;;19.90;99.90;;;;;;5053000;28;20086;-84
2022/09/09 12:51:50;;;;;;;5.45;1.10;;;20.20;99.90;;;;;;5052991;28;20024;-84
2022/09/09 12:54:16;;;;;;;5.13;1.30;;;21.50;99.90;;;;;;5052860;28;20041;-83
2022/09/09 12:56:46;;;;;;;6.68;1.30;;;21.60;99.90;;;;;;5038477;28;20032;-84
2022/09/09 12:59:24;;;;;;;7.25;1.25;;;22.50;99.90;;;;;;5052907;28;20422;-81
2022/09/09 13:01:59;;;;;;;6.63;1.52;;;22.40;99.90;;;;;;5067975;28;20020;-83
2022/09/09 13:04:26;;;;;;;4.70;1.27;;;23.40;99.90;;;;;;5052115;28;20025;-82
2022/09/09 13:06:52;;;;;;;3.95;1.25;;;23.10;99.90;;;;;;5052319;28;20021;-82
2022/09/09 13:09:19;;;;;;;2.15;1.00;;;21.40;99.90;;;;;;5052586;28;20487;-81
2022/09/09 13:11:52;;;;;;;5.50;1.20;;;20.40;99.90;;;;;;5052499;28;20040;-81
2022/09/09 13:14:34;;;;;;;5.50;1.20;;;20.20;99.90;;;;;;5052356;28;20409;-79
2022/09/09 13:17:03;;;;;;;8.43;1.83;;;20.00;99.90;;;;;;5051240;28;20025;-79
2022/09/09 13:19:33;;;;;;;5.88;1.60;;;20.20;99.90;;;;;;5052192;28;20499;-84